createdAt,value
2022-11-03T00:01:48.960Z,6.40
2022-11-03T00:04:18.097Z,7.68
2022-11-03T00:06:47.068Z,7.57
2022-11-03T00:09:15.622Z,7.43
2022-11-03T00:11:44.528Z,7.32
2022-11-03T00:14:12.526Z,6.97
2022-11-03T00:16:39.846Z,6.97
2022-11-03T00:19:08.334Z,6.53
2022-11-03T00:21:35.455Z,6.53
2022-11-03T00:24:02.962Z,6.80
2022-11-03T00:26:31.965Z,6.57
2022-11-03T00:29:01.593Z,6.90
2022-11-03T00:31:31.133Z,6.57
2022-11-03T00:33:59.480Z,6.95
2022-11-03T00:36:29.599Z,7.50
2022-11-03T00:38:57.882Z,6.68
2022-11-03T00:41:26.981Z,7.55
2022-11-03T00:43:54.783Z,7.20
2022-11-03T00:46:23.038Z,7.78
2022-11-03T00:48:50.382Z,6.80
2022-11-03T00:51:24.032Z,6.57
2022-11-03T00:53:53.155Z,7.50
2022-11-03T00:56:22.627Z,7.45
2022-11-03T00:58:50.791Z,7.85
2022-11-03T01:01:20.865Z,8.27
2022-11-03T01:04:08.413Z,8.68
2022-11-03T01:06:55.521Z,8.48
2022-11-03T01:09:28.164Z,8.60
2022-11-03T01:12:10.191Z,8.10
2022-11-03T01:14:37.019Z,8.10
2022-11-03T01:17:13.412Z,8.57
2022-11-03T01:19:40.515Z,8.40
2022-11-03T01:22:10.679Z,9.38
2022-11-03T01:24:41.353Z,8.35
2022-11-03T01:27:10.080Z,9.07
2022-11-03T01:29:37.063Z,8.93
2022-11-03T01:32:04.142Z,8.80
2022-11-03T01:34:31.320Z,9.35
2022-11-03T01:36:58.288Z,9.10
2022-11-03T01:39:25.126Z,8.50
2022-11-03T01:41:53.359Z,8.65
2022-11-03T01:44:37.563Z,8.55
2022-11-03T01:47:33.210Z,7.65
2022-11-03T01:50:08.025Z,8.82
2022-11-03T01:52:39.338Z,7.30
2022-11-03T01:55:16.164Z,8.00
2022-11-03T01:57:55.857Z,7.90
2022-11-03T02:00:23.079Z,7.97
2022-11-03T02:02:50.973Z,8.45
2022-11-03T02:05:19.515Z,7.65
2022-11-03T02:07:46.298Z,7.85
2022-11-03T02:10:13.405Z,7.88
2022-11-03T02:12:40.834Z,8.02
2022-11-03T02:15:13.986Z,8.73
2022-11-03T02:17:42.819Z,8.25
2022-11-03T02:20:16.720Z,7.55
2022-11-03T02:23:20.432Z,7.40
2022-11-03T02:25:57.549Z,6.82
2022-11-03T02:28:30.047Z,8.65
2022-11-03T02:31:03.018Z,8.07
2022-11-03T02:33:55.967Z,7.80
2022-11-03T02:36:49.991Z,8.00
2022-11-03T02:39:25.495Z,7.80
2022-11-03T02:41:56.343Z,7.95
2022-11-03T02:44:25.817Z,8.88
2022-11-03T02:46:58.768Z,9.25
2022-11-03T02:49:25.927Z,8.77
2022-11-03T02:52:03.881Z,8.23
2022-11-03T02:54:40.793Z,8.13
2022-11-03T02:57:30.633Z,7.95
2022-11-03T03:00:05.031Z,8.40
2022-11-03T03:02:43.140Z,8.23
2022-11-03T03:05:14.403Z,7.95
2022-11-03T03:07:46.258Z,8.10
2022-11-03T03:10:20.032Z,8.45
2022-11-03T03:12:49.618Z,8.02
2022-11-03T03:15:18.853Z,8.60
2022-11-03T03:17:53.807Z,8.40
2022-11-03T03:20:47.439Z,8.50
2022-11-03T03:23:26.783Z,8.32
2022-11-03T03:26:10.868Z,8.52
2022-11-03T03:28:48.546Z,8.43
2022-11-03T03:31:18.318Z,9.15
2022-11-03T03:33:48.039Z,9.10
2022-11-03T03:36:18.811Z,8.57
2022-11-03T03:38:52.337Z,8.73
2022-11-03T03:41:23.685Z,9.65
2022-11-03T03:43:57.534Z,8.48
2022-11-03T03:46:29.453Z,7.80
2022-11-03T03:48:56.393Z,6.93
2022-11-03T03:51:26.062Z,7.78
2022-11-03T03:53:54.566Z,7.88
2022-11-03T03:56:30.278Z,8.05
2022-11-03T03:58:57.181Z,7.22
2022-11-03T04:01:24.280Z,8.13
2022-11-03T04:03:51.283Z,9.60
2022-11-03T04:06:18.155Z,7.18
2022-11-03T04:08:45.570Z,7.80
2022-11-03T04:11:31.189Z,7.72
2022-11-03T04:14:16.453Z,9.20
2022-11-03T04:17:01.985Z,8.77
2022-11-03T04:19:47.461Z,8.93
2022-11-03T04:22:17.266Z,8.45
2022-11-03T04:24:51.970Z,8.40
2022-11-03T04:27:18.858Z,8.75
2022-11-03T04:29:45.803Z,8.20
2022-11-03T04:32:16.390Z,9.55
2022-11-03T04:34:45.693Z,9.13
2022-11-03T04:37:13.986Z,8.80
2022-11-03T04:39:41.257Z,9.55
2022-11-03T04:42:20.604Z,9.30
2022-11-03T04:44:48.675Z,8.90
2022-11-03T04:47:17.426Z,9.05
2022-11-03T04:49:46.972Z,9.43
2022-11-03T04:52:20.693Z,9.13
2022-11-03T04:54:50.106Z,9.85
2022-11-03T04:57:17.965Z,9.43
2022-11-03T04:59:50.737Z,9.65
2022-11-03T05:02:20.393Z,9.40
2022-11-03T05:04:47.221Z,10.30
2022-11-03T05:07:31.231Z,9.93
2022-11-03T05:09:58.544Z,9.38
2022-11-03T05:12:26.135Z,9.25
2022-11-03T05:14:58.079Z,9.85
2022-11-03T05:17:27.527Z,10.85
2022-11-03T05:20:00.096Z,10.15
2022-11-03T05:22:31.072Z,10.25
2022-11-03T05:25:02.704Z,10.10
2022-11-03T05:27:30.578Z,10.63
2022-11-03T05:30:01.035Z,9.75
2022-11-03T05:32:33.721Z,11.43
2022-11-03T05:35:01.342Z,10.43
2022-11-03T05:37:35.616Z,10.00
2022-11-03T05:40:17.748Z,11.23
2022-11-03T05:42:46.971Z,11.68
2022-11-03T05:45:22.681Z,10.93
2022-11-03T05:47:53.701Z,11.43
2022-11-03T05:50:26.289Z,10.90
2022-11-03T05:53:10.386Z,11.82
2022-11-03T05:55:37.529Z,11.23
2022-11-03T05:58:25.552Z,10.77
2022-11-03T06:00:53.962Z,11.10
2022-11-03T06:03:28.365Z,10.77
2022-11-03T06:05:57.122Z,10.73
2022-11-03T06:08:35.526Z,12.18
2022-11-03T06:11:04.734Z,11.32
2022-11-03T06:13:37.892Z,11.15
2022-11-03T06:16:31.677Z,10.88
2022-11-03T06:19:01.980Z,10.07
2022-11-03T06:21:28.812Z,9.82
2022-11-03T06:23:55.673Z,9.95
2022-11-03T06:26:26.349Z,10.13
2022-11-03T06:28:54.199Z,10.63
2022-11-03T06:31:28.825Z,10.27
2022-11-03T06:33:57.320Z,10.05
2022-11-03T06:36:32.688Z,10.68
2022-11-03T06:39:09.802Z,10.48
2022-11-03T06:41:37.272Z,9.85
2022-11-03T06:44:22.244Z,8.68
2022-11-03T06:46:49.166Z,9.05
2022-11-03T06:49:28.876Z,9.88
2022-11-03T06:51:57.237Z,7.60
2022-11-03T06:54:24.096Z,8.52
2022-11-03T06:56:51.086Z,7.72
2022-11-03T06:59:18.700Z,8.88
2022-11-03T07:01:48.908Z,7.97
2022-11-03T07:04:22.877Z,7.57
2022-11-03T07:06:53.524Z,7.15
2022-11-03T07:09:23.327Z,7.55
2022-11-03T07:11:53.704Z,7.85
2022-11-03T07:14:33.093Z,7.22
2022-11-03T07:17:05.036Z,6.40
2022-11-03T07:19:39.283Z,6.43
2022-11-03T07:22:16.854Z,6.07
2022-11-03T07:24:48.916Z,6.75
2022-11-03T07:27:29.126Z,6.55
2022-11-03T07:30:06.239Z,5.65
2022-11-03T07:32:35.048Z,5.80
2022-11-03T07:35:23.227Z,6.00
2022-11-03T07:37:52.471Z,5.28
2022-11-03T07:40:23.825Z,4.97
2022-11-03T07:42:51.970Z,5.05
2022-11-03T07:45:42.072Z,5.40
2022-11-03T07:48:18.753Z,4.80
2022-11-03T07:53:24.821Z,4.70
2022-11-03T07:55:55.434Z,4.32
2022-11-03T07:58:26.124Z,4.55
2022-11-03T08:00:58.783Z,5.47
2022-11-03T08:03:36.008Z,4.50
2022-11-03T08:06:04.888Z,4.47
2022-11-03T08:08:34.510Z,4.63
2022-11-03T08:11:01.476Z,4.05
2022-11-03T08:13:28.524Z,4.30
2022-11-03T08:15:55.385Z,3.90
2022-11-03T08:18:22.526Z,3.78
2022-11-03T08:20:49.409Z,3.97
2022-11-03T08:23:25.688Z,4.47
2022-11-03T08:25:53.287Z,3.83
2022-11-03T08:28:20.222Z,3.60
2022-11-03T08:30:47.104Z,3.95
2022-11-03T08:33:13.997Z,3.75
2022-11-03T08:35:41.682Z,3.70
2022-11-03T08:38:09.095Z,3.85
2022-11-03T08:40:36.358Z,3.70
2022-11-03T08:43:03.343Z,3.60
2022-11-03T08:45:30.793Z,3.63
2022-11-03T08:47:58.069Z,3.90
2022-11-03T08:50:25.144Z,3.55
2022-11-03T08:52:52.083Z,4.05
2022-11-03T08:55:19.016Z,4.10
2022-11-03T08:57:46.021Z,3.75
2022-11-03T09:00:13.956Z,3.95
2022-11-03T09:02:40.905Z,3.92
2022-11-03T09:05:08.123Z,3.97
2022-11-03T09:10:24.855Z,4.68
2022-11-03T09:12:56.265Z,4.43
2022-11-03T09:15:23.608Z,4.13
2022-11-03T09:17:50.799Z,4.03
2022-11-03T09:20:17.912Z,5.18
2022-11-03T09:22:44.889Z,3.80
2022-11-03T09:25:11.819Z,3.78
2022-11-03T09:27:38.676Z,4.30
2022-11-03T09:30:13.399Z,4.10
2022-11-03T09:32:41.206Z,3.60
2022-11-03T09:35:10.371Z,4.07
2022-11-03T09:37:38.177Z,3.20
2022-11-03T09:40:06.728Z,3.90
2022-11-03T09:42:34.685Z,3.55
2022-11-03T10:17:00.505Z,3.10
2022-11-03T10:19:27.944Z,3.33
2022-11-03T10:21:54.809Z,3.67
2022-11-03T10:24:22.263Z,3.28
2022-11-03T10:26:51.383Z,3.90
2022-11-03T10:29:21.017Z,2.90
2022-11-03T10:31:50.609Z,2.92
2022-11-03T10:34:33.892Z,2.85
2022-11-03T10:37:23.388Z,2.83
2022-11-03T10:39:53.823Z,2.80
2022-11-03T10:42:23.092Z,3.05
2022-11-03T10:44:56.510Z,3.05
2022-11-03T10:47:34.863Z,3.47
2022-11-03T10:50:20.713Z,3.00
2022-11-03T10:52:48.016Z,2.83
2022-11-03T10:55:19.267Z,2.88
2022-11-03T10:57:53.153Z,3.08
2022-11-03T11:00:20.571Z,3.45
2022-11-03T11:02:49.161Z,3.08
2022-11-03T11:05:20.112Z,3.33
2022-11-03T11:07:48.420Z,2.95
2022-11-03T11:10:18.167Z,3.08
2022-11-03T11:13:23.131Z,2.95
2022-11-03T11:16:00.803Z,3.17
2022-11-03T11:18:27.692Z,3.00
2022-11-03T11:20:55.790Z,2.80
2022-11-03T11:23:28.727Z,2.90
2022-11-03T11:26:11.212Z,3.05
2022-11-03T11:29:10.417Z,3.10
2022-11-03T11:31:41.670Z,3.33
2022-11-03T11:34:18.486Z,3.78
2022-11-03T11:36:54.382Z,3.38
2022-11-03T11:39:24.509Z,3.15
2022-11-03T11:42:17.895Z,3.42
2022-11-03T11:44:52.833Z,3.35
2022-11-03T11:47:31.413Z,3.75
2022-11-03T11:50:07.647Z,3.15
2022-11-03T11:52:55.756Z,4.10
2022-11-03T11:55:30.138Z,3.67
2022-11-03T11:57:59.805Z,3.05
2022-11-03T12:00:30.756Z,3.00
2022-11-03T12:02:59.796Z,3.03
2022-11-03T12:05:30.265Z,3.25
2022-11-03T12:07:57.514Z,3.30
2022-11-03T12:10:27.001Z,3.92
2022-11-03T12:12:58.806Z,3.20
2022-11-03T12:15:58.224Z,2.95
2022-11-03T12:18:39.891Z,3.38
2022-11-03T12:21:11.095Z,4.13
2022-11-03T12:23:46.601Z,3.60
2022-11-03T12:26:17.649Z,3.38
2022-11-03T12:28:44.921Z,4.05
2022-11-03T12:31:12.678Z,3.67
2022-11-03T12:33:39.845Z,3.20
2022-11-03T12:36:07.353Z,3.40
2022-11-03T12:38:34.441Z,5.78
2022-11-03T12:41:20.070Z,5.72
2022-11-03T12:43:50.606Z,7.55
2022-11-03T12:46:19.274Z,6.90
2022-11-03T12:48:47.508Z,6.97
2022-11-03T12:51:18.752Z,7.40
2022-11-03T12:53:46.283Z,7.18
2022-11-03T12:56:14.799Z,7.57
2022-11-03T12:58:41.727Z,7.60
2022-11-03T13:01:09.436Z,7.50
2022-11-03T13:03:37.723Z,7.50
2022-11-03T13:06:09.950Z,7.50
2022-11-03T13:08:37.427Z,7.53
2022-11-03T13:11:04.523Z,7.07
2022-11-03T13:13:32.817Z,7.78
2022-11-03T13:15:59.664Z,7.20
2022-11-03T13:18:26.639Z,7.10
2022-11-03T13:20:54.285Z,7.78
2022-11-03T13:23:23.024Z,8.10
2022-11-03T13:25:50.337Z,7.57
2022-11-03T13:28:17.240Z,8.45
2022-11-03T13:30:44.179Z,8.85
2022-11-03T13:33:11.167Z,9.68
2022-11-03T13:35:38.328Z,9.48
2022-11-03T13:38:05.392Z,9.35
2022-11-03T13:43:19.568Z,10.57
2022-11-03T13:45:46.544Z,10.30
2022-11-03T13:56:19.498Z,9.30
2022-11-03T14:01:36.693Z,10.80
2022-11-03T14:06:51.016Z,9.77
2022-11-03T14:09:17.952Z,11.07
2022-11-03T14:12:03.186Z,10.48
2022-11-03T14:14:30.084Z,11.00
2022-11-03T14:16:57.210Z,10.70
2022-11-03T14:19:30.781Z,10.23
2022-11-03T14:22:02.413Z,10.90
2022-11-03T14:24:29.324Z,10.10
2022-11-03T14:26:56.262Z,10.65
2022-11-03T14:29:23.188Z,11.20
2022-11-03T14:31:50.222Z,10.75
2022-11-03T14:34:17.210Z,10.55
2022-11-03T14:36:44.295Z,11.38
2022-11-03T14:39:11.180Z,11.55
2022-11-03T14:41:56.574Z,11.07
2022-11-03T14:44:23.976Z,11.55
2022-11-03T14:46:50.963Z,11.20
2022-11-03T14:49:17.881Z,11.32
2022-11-03T14:51:44.869Z,11.43
2022-11-03T14:54:11.794Z,11.13
2022-11-03T14:56:38.671Z,14.05
2022-11-03T14:59:05.556Z,11.93
2022-11-03T15:01:32.526Z,12.52
2022-11-03T15:03:59.652Z,10.95
2022-11-03T15:06:26.527Z,11.98
2022-11-03T15:08:56.381Z,12.27
2022-11-03T15:11:23.709Z,12.38
2022-11-03T15:13:52.639Z,11.48
2022-11-03T15:16:19.828Z,11.65
2022-11-03T15:18:46.780Z,11.85
2022-11-03T15:21:14.158Z,12.52
2022-11-03T15:26:28.224Z,12.05
2022-11-03T15:28:55.228Z,10.82
2022-11-03T15:31:23.796Z,12.10
2022-11-03T15:33:50.806Z,11.32
2022-11-03T15:36:17.832Z,11.63
2022-11-03T15:38:44.953Z,12.82
2022-11-03T15:41:19.107Z,13.18
2022-11-03T15:43:48.485Z,12.10
2022-11-03T15:46:17.527Z,12.77
2022-11-03T15:48:45.295Z,13.70
2022-11-03T15:51:12.557Z,13.60
2022-11-03T15:53:39.730Z,12.70
2022-11-03T15:56:07.465Z,13.52
2022-11-03T15:58:34.767Z,13.48
2022-11-03T16:01:03.220Z,12.07
2022-11-03T16:03:32.150Z,12.70
2022-11-03T16:05:59.383Z,13.02
2022-11-03T16:08:26.405Z,13.95
2022-11-03T16:10:57.690Z,12.02
2022-11-03T16:13:25.419Z,14.00
2022-11-03T16:15:54.631Z,13.50
2022-11-03T16:18:21.885Z,13.88
2022-11-03T16:20:48.868Z,13.43
2022-11-03T16:23:15.821Z,14.73
2022-11-03T16:25:43.136Z,14.65
2022-11-03T16:28:10.565Z,14.73
2022-11-03T16:30:38.821Z,12.63
2022-11-03T16:33:06.083Z,13.75
2022-11-03T16:35:33.576Z,13.55
2022-11-03T16:38:01.032Z,12.35
2022-11-03T16:40:28.220Z,12.48
2022-11-03T16:42:55.184Z,12.13
2022-11-03T16:45:23.922Z,13.13
2022-11-03T16:47:51.250Z,11.88
2022-11-03T16:50:19.106Z,10.95
2022-11-03T16:52:47.992Z,12.05
2022-11-03T16:55:16.392Z,11.40
2022-11-03T16:57:44.272Z,11.73
2022-11-03T17:00:14.834Z,11.82
2022-11-03T17:02:42.643Z,11.73
2022-11-03T17:05:11.476Z,11.07
2022-11-03T17:07:39.279Z,11.05
2022-11-03T17:10:09.518Z,10.95
2022-11-03T17:12:36.930Z,10.15
2022-11-03T17:15:05.810Z,9.52
2022-11-03T17:17:33.470Z,10.35
2022-11-03T17:20:00.866Z,9.52
2022-11-03T17:22:27.921Z,10.00
2022-11-03T17:24:54.838Z,8.77
2022-11-03T17:27:31.877Z,9.90
2022-11-03T17:30:06.203Z,9.82
2022-11-03T17:32:39.501Z,9.50
2022-11-03T17:35:38.659Z,9.20
2022-11-03T17:38:14.086Z,9.18
2022-11-03T17:40:48.530Z,9.45
2022-11-03T17:43:18.655Z,8.68
2022-11-03T17:45:45.589Z,8.75
2022-11-03T17:48:12.672Z,8.93
2022-11-03T17:50:46.264Z,8.80
2022-11-03T17:53:20.027Z,8.23
2022-11-03T17:55:53.192Z,7.75
2022-11-03T17:58:36.184Z,8.10
2022-11-03T18:01:04.828Z,8.32
2022-11-03T18:03:31.923Z,8.70
2022-11-03T18:05:58.842Z,7.93
2022-11-03T18:08:25.766Z,8.07
2022-11-03T18:10:54.388Z,6.82
2022-11-03T18:13:30.113Z,7.10
2022-11-03T18:16:07.898Z,7.68
2022-11-03T18:18:38.350Z,7.88
2022-11-03T18:21:05.564Z,7.43
2022-11-03T18:23:34.466Z,7.05
2022-11-03T18:26:02.734Z,7.10
2022-11-03T18:28:29.686Z,7.40
2022-11-03T18:30:57.248Z,8.00
2022-11-03T18:33:24.213Z,7.95
2022-11-03T18:35:51.580Z,7.15
2022-11-03T18:38:18.653Z,6.97
2022-11-03T18:40:45.680Z,7.07
2022-11-03T18:43:23.603Z,7.90
2022-11-03T18:45:51.171Z,7.45
2022-11-03T18:48:21.112Z,6.95
2022-11-03T18:50:54.045Z,6.22
2022-11-03T18:53:23.541Z,7.10
2022-11-03T18:56:00.863Z,7.03
2022-11-03T18:58:28.245Z,7.97
2022-11-03T19:00:55.239Z,6.28
2022-11-03T19:03:23.603Z,6.93
2022-11-03T19:05:52.769Z,7.22
2022-11-03T19:08:26.275Z,7.28
2022-11-03T19:10:56.121Z,6.97
2022-11-03T19:13:33.573Z,7.38
2022-11-03T19:16:02.791Z,7.72
2022-11-03T19:18:34.978Z,7.18
2022-11-03T19:21:01.885Z,7.20
2022-11-03T19:23:28.793Z,7.03
2022-11-03T19:25:59.403Z,7.07
2022-11-03T19:28:29.737Z,6.50
2022-11-03T19:30:58.210Z,6.90
2022-11-03T19:33:28.119Z,7.10
2022-11-03T19:35:58.012Z,7.13
2022-11-03T19:38:25.527Z,6.72
2022-11-03T19:41:11.492Z,7.18
2022-11-03T19:43:38.444Z,7.32
2022-11-03T19:46:05.513Z,6.70
2022-11-03T19:48:34.439Z,7.22
2022-11-03T19:51:08.863Z,7.45
2022-11-03T19:53:37.113Z,8.25
2022-11-03T19:56:04.943Z,8.50
2022-11-03T19:58:31.874Z,7.75
2022-11-03T20:01:02.819Z,6.70
2022-11-03T20:03:32.752Z,6.95
2022-11-03T20:05:59.764Z,7.68
2022-11-03T20:08:29.486Z,8.00
2022-11-03T20:10:56.588Z,7.72
2022-11-03T20:13:26.305Z,8.27
2022-11-03T20:15:58.908Z,7.25
2022-11-03T20:18:26.267Z,8.23
2022-11-03T20:20:53.184Z,8.18
2022-11-03T20:23:29.056Z,8.07
2022-11-03T20:25:56.504Z,7.90
2022-11-03T20:28:27.804Z,9.23
2022-11-03T20:30:55.736Z,8.13
2022-11-03T20:33:24.397Z,8.20
2022-11-03T20:35:53.834Z,9.05
2022-11-03T20:38:22.892Z,8.07
2022-11-03T20:40:55.835Z,8.95
2022-11-03T20:43:24.474Z,8.85
2022-11-03T20:45:51.484Z,8.30
2022-11-03T20:48:18.423Z,8.85
2022-11-03T20:50:45.477Z,8.68
2022-11-03T20:53:16.158Z,7.80
2022-11-03T20:55:43.630Z,8.27
2022-11-03T20:58:13.456Z,8.35
2022-11-03T21:00:41.936Z,9.02
2022-11-03T21:03:53.594Z,8.23
2022-11-03T21:06:17.805Z,7.88
2022-11-03T21:08:46.451Z,9.30
2022-11-03T21:11:24.178Z,9.70
2022-11-03T21:13:52.886Z,8.88
2022-11-03T21:16:38.559Z,9.32
2022-11-03T21:19:38.556Z,8.00
2022-11-03T21:25:23.393Z,8.98
2022-11-03T21:27:50.815Z,8.40
2022-11-03T21:30:18.660Z,8.23
2022-11-03T21:32:45.849Z,8.82
2022-11-03T21:35:19.449Z,8.05
2022-11-03T21:37:46.615Z,8.45
2022-11-03T21:40:13.682Z,9.52
2022-11-03T21:42:59.408Z,8.45
2022-11-03T21:45:26.587Z,8.40
2022-11-03T21:48:14.311Z,8.07
2022-11-03T21:50:42.352Z,7.75
2022-11-03T21:53:10.009Z,7.53
2022-11-03T21:55:37.284Z,8.15
2022-11-03T21:58:05.003Z,8.07
2022-11-03T22:00:32.285Z,7.80
2022-11-03T22:02:59.946Z,8.55
2022-11-03T22:05:27.622Z,8.75
2022-11-03T22:07:54.647Z,8.27
2022-11-03T22:10:21.874Z,8.50
2022-11-03T22:12:48.961Z,9.35
2022-11-03T22:15:34.822Z,8.38
2022-11-03T22:18:03.448Z,9.32
2022-11-03T22:20:48.595Z,7.82
2022-11-03T22:23:34.433Z,8.98
2022-11-03T22:26:20.589Z,8.50
2022-11-03T22:29:07.418Z,8.25
2022-11-03T22:31:43.269Z,8.75
2022-11-03T22:34:28.906Z,8.13
2022-11-03T22:36:55.948Z,8.02
2022-11-03T22:39:41.536Z,9.75
2022-11-03T22:42:30.151Z,9.10
2022-11-03T22:45:15.816Z,8.35
2022-11-03T22:47:42.711Z,7.75
2022-11-03T22:50:10.128Z,7.35
2022-11-03T22:52:37.154Z,7.97
2022-11-03T22:55:04.632Z,7.32
2022-11-03T22:57:31.590Z,8.20
2022-11-03T22:59:58.514Z,6.90
2022-11-03T23:02:25.414Z,8.55
2022-11-03T23:04:52.393Z,7.63
2022-11-03T23:07:19.315Z,7.35
2022-11-03T23:09:46.560Z,7.60
2022-11-03T23:12:13.433Z,7.15
2022-11-03T23:14:58.892Z,8.07
2022-11-03T23:17:45.705Z,8.45
2022-11-03T23:20:31.423Z,8.45
2022-11-03T23:22:58.471Z,9.57
2022-11-03T23:25:25.364Z,9.68
2022-11-03T23:27:52.855Z,9.50
2022-11-03T23:30:19.809Z,9.77
2022-11-03T23:32:46.679Z,8.93
2022-11-03T23:35:14.701Z,9.68
2022-11-03T23:37:41.633Z,8.52
2022-11-03T23:40:09.005Z,9.00
2022-11-03T23:42:35.865Z,7.50
2022-11-03T23:45:21.302Z,9.18
2022-11-03T23:48:07.289Z,8.70
2022-11-03T23:50:34.521Z,7.72
2022-11-03T23:53:01.439Z,8.05
2022-11-03T23:55:48.478Z,8.48
2022-11-03T23:58:21.758Z,8.90
